Kindakun Rocks, Canada
Current Conditions -  °F | °C
As of 2:17 AM on Monday 20 Oct 2014 (Local Time) from CYZP Reporting Station
Overcast Overcast  
Wind Chill: 50°   Ceiling: 17000
Heat Index: 50°   Visibility: 9mi
Dew Point: 50°   Wind: 10mph
Humidity: 100%   Direction: 160°SSE
Pressure: 29.31"   Gusts: NA
Location:  53.32°N, 132.75°W
Report Text: CYZP 200917Z AUTO 16009KT 9SM FEW075 SCT088 BKN170 OVC190 10/10 A2931 RMK SLP925 DENSITY ALT 100FT
Loading
Personal Weather Stations






























Interactive Weather Map
Tropical Storm Tracking
New forecast layout! Learn more

10-Day Weather Forecast

Advertisements
Track Severe Weather on mobile